createdAt,value
2022-09-04T00:00:13.863Z,2.80
2022-09-04T00:05:36.001Z,2.70
2022-09-04T00:10:47.540Z,2.43
2022-09-04T00:15:54.296Z,2.70
2022-09-04T00:20:56.579Z,2.93
2022-09-04T00:26:20.976Z,2.57
2022-09-04T00:31:29.743Z,2.60
2022-09-04T00:36:32.331Z,2.37
2022-09-04T00:41:54.841Z,2.30
2022-09-04T00:47:16.083Z,2.80
2022-09-04T00:52:21.611Z,2.92
2022-09-04T00:58:04.045Z,2.83
2022-09-04T01:03:07.263Z,2.35
2022-09-04T01:08:22.551Z,2.40
2022-09-04T01:14:00.835Z,2.10
2022-09-04T01:19:18.398Z,2.30
2022-09-04T01:24:33.005Z,1.63
2022-09-04T01:29:36.122Z,1.70
2022-09-04T01:34:42.451Z,1.70
2022-09-04T01:39:50.249Z,1.60
2022-09-04T01:44:54.789Z,1.50
2022-09-04T01:50:11.332Z,1.63
2022-09-04T01:55:26.612Z,1.70
2022-09-04T02:00:31.325Z,1.73
2022-09-04T02:05:55.162Z,2.00
2022-09-04T02:11:09.174Z,1.80
2022-09-04T02:16:14.531Z,2.00
2022-09-04T02:21:24.214Z,2.53
2022-09-04T02:26:33.792Z,2.20
2022-09-04T02:31:49.372Z,1.95
2022-09-04T02:36:51.737Z,2.05
2022-09-04T02:42:03.904Z,2.00
2022-09-04T02:47:14.622Z,2.10
2022-09-04T02:52:33.652Z,2.10
2022-09-04T02:57:43.673Z,1.98
2022-09-04T03:02:53.006Z,2.72
2022-09-04T03:08:00.616Z,2.47
2022-09-04T03:13:27.883Z,2.33
2022-09-04T03:18:37.756Z,2.13
2022-09-04T03:23:51.428Z,2.20
2022-09-04T03:28:53.718Z,2.58
2022-09-04T03:34:04.025Z,2.70
2022-09-04T03:39:12.801Z,2.53
2022-09-04T03:44:23.138Z,2.60
2022-09-04T03:49:44.243Z,2.85
2022-09-04T03:55:07.128Z,3.67
2022-09-04T04:00:12.626Z,3.10
2022-09-04T04:05:21.236Z,3.00
2022-09-04T04:10:35.522Z,2.75
2022-09-04T04:15:52.786Z,2.83
2022-09-04T04:21:03.500Z,2.67
2022-09-04T04:26:10.766Z,2.38
2022-09-04T04:31:35.333Z,2.53
2022-09-04T04:36:42.600Z,2.57
2022-09-04T04:42:06.361Z,2.50
2022-09-04T04:47:18.027Z,2.10
2022-09-04T04:52:31.422Z,2.45
2022-09-04T04:57:38.538Z,2.30
2022-09-04T05:03:01.464Z,2.45
2022-09-04T05:08:10.875Z,2.63
2022-09-04T05:13:13.255Z,2.60
2022-09-04T05:18:23.452Z,2.20
2022-09-04T05:23:44.764Z,2.17
2022-09-04T05:29:03.246Z,2.28
2022-09-04T05:34:05.710Z,1.93
2022-09-04T05:39:30.524Z,1.80
2022-09-04T05:44:49.587Z,1.60
2022-09-04T05:50:04.247Z,1.37
2022-09-04T05:55:06.598Z,2.10
2022-09-04T06:00:16.341Z,2.03
2022-09-04T06:05:24.564Z,1.60
2022-09-04T06:10:45.813Z,1.40
2022-09-04T06:16:01.876Z,1.53
2022-09-04T06:21:25.229Z,2.47
2022-09-04T06:26:53.866Z,2.20
2022-09-04T06:32:04.473Z,1.43
2022-09-04T06:37:19.812Z,1.20
2022-09-04T06:42:24.502Z,1.10
2022-09-04T06:47:45.664Z,0.90
2022-09-04T06:52:50.271Z,1.60
2022-09-04T06:57:58.734Z,1.30
2022-09-04T07:03:10.351Z,1.10
2022-09-04T07:08:24.613Z,1.10
2022-09-04T07:13:36.157Z,0.97
2022-09-04T07:18:52.289Z,0.97
2022-09-04T07:24:22.709Z,1.03
2022-09-04T07:29:42.503Z,0.90
2022-09-04T07:35:05.086Z,0.90
2022-09-04T07:40:15.991Z,1.00
2022-09-04T07:45:27.903Z,0.87
2022-09-04T07:50:41.868Z,0.90
2022-09-04T07:55:55.171Z,0.90
2022-09-04T08:01:15.518Z,0.83
2022-09-04T08:06:23.072Z,1.10
2022-09-04T08:11:25.552Z,0.90
2022-09-04T08:16:49.190Z,0.80
2022-09-04T08:21:57.124Z,0.67
2022-09-04T08:27:19.038Z,0.93
2022-09-04T08:32:37.893Z,0.80
2022-09-04T08:37:48.899Z,1.00
2022-09-04T08:43:20.888Z,0.70
2022-09-04T08:48:32.724Z,0.80
2022-09-04T08:53:35.296Z,0.70
2022-09-04T08:58:42.327Z,0.77
2022-09-04T09:03:46.940Z,0.90
2022-09-04T09:08:59.984Z,0.70
2022-09-04T09:14:10.860Z,0.90
2022-09-04T09:19:20.883Z,1.30
2022-09-04T09:24:42.135Z,1.50
2022-09-04T09:29:47.656Z,0.73
2022-09-04T09:34:55.345Z,1.20
2022-09-04T09:40:08.308Z,0.80
2022-09-04T09:45:12.791Z,0.97
2022-09-04T09:50:20.674Z,1.00
2022-09-04T09:55:38.359Z,0.98
2022-09-04T10:00:47.252Z,0.90
2022-09-04T10:05:57.947Z,1.00
2022-09-04T10:11:11.079Z,1.10
2022-09-04T10:16:35.527Z,0.98
2022-09-04T10:21:59.161Z,1.10
2022-09-04T10:27:27.067Z,0.90
2022-09-04T10:32:31.872Z,1.00
2022-09-04T10:37:51.191Z,0.80
2022-09-04T10:43:10.297Z,0.80
2022-09-04T10:48:26.585Z,0.70
2022-09-04T10:53:39.858Z,0.82
2022-09-04T10:58:51.497Z,0.83
2022-09-04T11:04:22.586Z,0.90
2022-09-04T11:09:36.301Z,1.10
2022-09-04T11:15:01.496Z,0.73
2022-09-04T11:20:17.560Z,0.70
2022-09-04T11:25:52.254Z,0.80
2022-09-04T11:31:01.931Z,0.90
2022-09-04T11:36:06.695Z,0.53
2022-09-04T11:41:29.157Z,1.00
2022-09-04T11:46:34.576Z,0.83
2022-09-04T11:51:48.950Z,1.03
2022-09-04T11:57:13.672Z,0.90
2022-09-04T12:02:39.382Z,0.70
2022-09-04T12:08:20.495Z,1.00
2022-09-04T12:13:40.221Z,1.00
2022-09-04T12:18:45.736Z,0.90
2022-09-04T12:23:48.185Z,0.80
2022-09-04T12:29:02.864Z,0.90
2022-09-04T12:34:14.289Z,1.30
2022-09-04T12:39:46.923Z,1.30
2022-09-04T12:45:10.526Z,1.27
2022-09-04T12:50:28.184Z,1.23
2022-09-04T12:55:39.458Z,0.80
2022-09-04T13:00:49.694Z,1.33
2022-09-04T13:06:16.396Z,2.07
2022-09-04T13:11:37.922Z,0.63
2022-09-04T13:16:45.856Z,0.90
2022-09-04T13:22:01.479Z,0.87
2022-09-04T13:27:10.534Z,0.57
2022-09-04T13:32:25.720Z,1.00
2022-09-04T13:37:35.030Z,0.85
2022-09-04T13:42:43.288Z,1.70
2022-09-04T13:47:54.695Z,0.85
2022-09-04T13:53:05.822Z,0.50
2022-09-04T13:58:17.033Z,0.80
2022-09-04T14:03:30.086Z,0.47
2022-09-04T14:08:39.758Z,0.68
2022-09-04T14:14:11.006Z,0.70
2022-09-04T14:19:22.090Z,0.70
2022-09-04T14:24:50.203Z,0.70
2022-09-04T14:29:58.344Z,0.82
2022-09-04T14:35:19.715Z,0.63
2022-09-04T14:40:30.606Z,1.00
2022-09-04T14:45:38.800Z,0.80
2022-09-04T14:50:51.763Z,0.95
2022-09-04T14:56:09.406Z,0.70
2022-09-04T15:01:22.420Z,1.00
2022-09-04T15:06:32.883Z,0.70
2022-09-04T15:11:42.553Z,0.85
2022-09-04T15:16:51.806Z,0.60
2022-09-04T15:21:56.454Z,0.77
2022-09-04T15:27:02.162Z,0.73
2022-09-04T15:32:14.262Z,0.80
2022-09-04T15:37:25.768Z,0.70
2022-09-04T15:42:46.949Z,0.90
2022-09-04T15:48:11.287Z,0.77
2022-09-04T15:53:16.174Z,0.75
2022-09-04T15:58:34.903Z,0.70
2022-09-04T16:03:43.242Z,0.93
2022-09-04T16:08:50.859Z,1.10
2022-09-04T16:13:58.426Z,0.90
2022-09-04T16:19:07.474Z,0.83
2022-09-04T16:24:16.588Z,0.80
2022-09-04T16:29:26.834Z,0.77
2022-09-04T16:34:37.325Z,0.77
2022-09-04T16:39:49.851Z,0.80
2022-09-04T16:45:10.413Z,4.57
2022-09-04T16:50:25.017Z,1.00
2022-09-04T16:55:37.248Z,0.87
2022-09-04T17:00:48.241Z,0.90
2022-09-04T17:06:06.274Z,1.00
2022-09-04T17:11:14.177Z,1.10
2022-09-04T17:16:24.381Z,1.60
2022-09-04T17:27:26.009Z,1.70
2022-09-04T17:29:12.860Z,1.90
2022-09-04T17:36:29.678Z,1.20
2022-09-04T17:40:40.195Z,0.90
2022-09-04T17:44:02.399Z,1.00
2022-09-04T17:49:14.547Z,0.87
2022-09-04T17:54:17.038Z,1.03
2022-09-04T17:59:19.356Z,2.47
2022-09-04T18:04:28.958Z,1.40
2022-09-04T18:10:01.041Z,0.90
2022-09-04T18:15:32.192Z,2.23
2022-09-04T18:20:38.518Z,1.13
2022-09-04T18:25:48.828Z,1.00
2022-09-04T18:37:12.236Z,2.87
2022-09-04T18:37:15.729Z,2.00
2022-09-04T18:50:25.755Z,1.63
2022-09-04T18:50:36.971Z,1.53
2022-09-04T18:52:44.354Z,2.00
2022-09-04T18:57:49.384Z,2.30
2022-09-04T19:02:59.210Z,1.73
2022-09-04T19:08:02.891Z,1.60
2022-09-04T19:13:22.815Z,1.40
2022-09-04T19:18:46.678Z,1.40
2022-09-04T19:23:59.055Z,1.17
2022-09-04T19:29:25.754Z,1.00
2022-09-04T19:34:28.726Z,4.00
2022-09-04T19:45:54.487Z,2.30
2022-09-04T19:46:18.486Z,1.40
2022-09-04T19:53:22.374Z,2.00
2022-09-04T19:56:09.536Z,1.57
2022-09-04T20:01:16.670Z,1.40
2022-09-04T20:06:22.395Z,1.30
2022-09-04T20:11:35.573Z,1.10
2022-09-04T20:16:59.577Z,1.30
2022-09-04T20:22:05.332Z,1.63
2022-09-04T20:27:10.374Z,1.60
2022-09-04T20:32:15.867Z,2.50
2022-09-04T20:37:44.814Z,1.53
2022-09-04T20:42:56.495Z,1.30
2022-09-04T20:52:51.809Z,1.57
2022-09-04T21:03:06.441Z,3.20
2022-09-04T21:09:55.436Z,2.53
2022-09-04T21:15:25.931Z,3.42
2022-09-04T21:20:51.846Z,6.63
2022-09-04T21:26:24.297Z,4.10
2022-09-04T21:31:50.309Z,3.47
2022-09-04T21:37:14.694Z,3.10
2022-09-04T21:42:35.835Z,3.13
2022-09-04T21:47:47.867Z,3.17
2022-09-04T21:53:10.785Z,2.72
2022-09-04T22:02:39.896Z,2.63
2022-09-04T22:03:45.207Z,2.30
2022-09-04T22:13:33.190Z,2.10
2022-09-04T22:14:40.089Z,2.25
2022-09-04T22:19:48.221Z,2.05
2022-09-04T22:25:06.695Z,2.30
2022-09-04T22:30:14.327Z,2.00
2022-09-04T22:35:37.541Z,2.10
2022-09-04T22:40:58.355Z,2.17
2022-09-04T22:46:19.027Z,2.20
2022-09-04T22:51:41.993Z,2.10
2022-09-04T22:56:50.541Z,1.77
2022-09-04T23:02:00.138Z,1.90
2022-09-04T23:11:00.409Z,2.00
2022-09-04T23:13:57.403Z,1.70
2022-09-04T23:21:56.396Z,1.60
2022-09-04T23:26:54.235Z,1.80
2022-09-04T23:29:52.645Z,1.80
2022-09-04T23:35:17.197Z,2.00
2022-09-04T23:40:39.644Z,1.90
2022-09-04T23:46:18.143Z,2.05
2022-09-04T23:51:41.608Z,1.88
2022-09-04T23:57:16.882Z,2.60
